createdAt,value
2018-06-19T00:02:12.330Z,3.93
2018-06-19T00:04:41.696Z,4.07
2018-06-19T00:07:10.413Z,4.07
2018-06-19T00:09:39.132Z,4.10
2018-06-19T00:12:07.797Z,3.80
2018-06-19T00:14:36.488Z,3.90
2018-06-19T00:17:05.192Z,3.67
2018-06-19T00:19:34.975Z,3.70
2018-06-19T00:22:03.651Z,3.43
2018-06-19T00:24:32.355Z,4.03
2018-06-19T00:27:01.114Z,3.60
2018-06-19T00:29:29.727Z,3.57
2018-06-19T00:31:58.398Z,3.60
2018-06-19T00:34:27.036Z,3.43
2018-06-19T00:36:55.696Z,4.00
2018-06-19T00:39:24.445Z,3.77
2018-06-19T00:41:53.176Z,3.87
2018-06-19T00:44:21.905Z,3.50
2018-06-19T00:46:52.372Z,3.87
2018-06-19T00:49:21.024Z,3.70
2018-06-19T00:51:49.666Z,3.60
2018-06-19T00:54:19.171Z,3.70
2018-06-19T00:56:55.557Z,3.63
2018-06-19T00:59:24.256Z,3.77
2018-06-19T01:01:54.055Z,4.00
2018-06-19T01:04:22.781Z,3.87
2018-06-19T01:06:51.492Z,3.50
2018-06-19T01:09:20.159Z,3.60
2018-06-19T01:11:48.816Z,3.47
2018-06-19T01:14:17.516Z,3.77
2018-06-19T01:16:46.179Z,3.83
2018-06-19T01:19:14.485Z,3.90
2018-06-19T01:21:43.124Z,3.77
2018-06-19T01:24:11.836Z,4.07
2018-06-19T01:26:40.524Z,3.90
2018-06-19T01:29:09.230Z,3.90
2018-06-19T01:31:37.897Z,3.87
2018-06-19T01:34:06.586Z,3.70
2018-06-19T01:36:35.249Z,3.93
2018-06-19T01:39:04.799Z,3.63
2018-06-19T01:41:33.444Z,4.10
2018-06-19T01:44:02.171Z,3.90
2018-06-19T01:46:30.875Z,3.97
2018-06-19T01:48:59.545Z,3.60
2018-06-19T01:51:28.223Z,4.40
2018-06-19T01:53:56.895Z,4.47
2018-06-19T01:56:25.617Z,3.80
2018-06-19T01:58:54.560Z,3.83
2018-06-19T02:01:23.239Z,3.80
2018-06-19T02:03:52.077Z,4.20
2018-06-19T02:06:20.803Z,4.03
2018-06-19T02:08:49.501Z,4.57
2018-06-19T02:11:18.152Z,4.53
2018-06-19T02:13:46.814Z,4.43
2018-06-19T02:16:15.560Z,4.43
2018-06-19T02:18:44.261Z,4.30
2018-06-19T02:21:12.937Z,4.53
2018-06-19T02:23:41.632Z,4.40
2018-06-19T02:26:10.291Z,4.43
2018-06-19T02:28:38.950Z,4.77
2018-06-19T02:31:07.625Z,4.40
2018-06-19T02:33:36.298Z,4.87
2018-06-19T02:36:04.997Z,4.73
2018-06-19T02:38:33.731Z,4.40
2018-06-19T02:41:02.533Z,4.93
2018-06-19T02:43:31.275Z,5.00
2018-06-19T02:45:59.997Z,4.77
2018-06-19T02:48:28.657Z,4.93
2018-06-19T02:50:57.404Z,5.13
2018-06-19T02:53:26.052Z,4.53
2018-06-19T02:55:54.778Z,4.80
2018-06-19T02:58:23.469Z,5.20
2018-06-19T03:00:52.205Z,5.73
2018-06-19T03:03:20.842Z,5.50
2018-06-19T03:05:49.575Z,5.37
2018-06-19T03:08:18.220Z,4.90
2018-06-19T03:10:47.636Z,5.60
2018-06-19T03:13:16.240Z,5.87
2018-06-19T03:15:44.859Z,5.47
2018-06-19T03:18:13.554Z,5.87
2018-06-19T03:20:42.231Z,5.57
2018-06-19T03:23:10.829Z,5.93
2018-06-19T03:25:40.143Z,6.17
2018-06-19T03:28:08.821Z,6.40
2018-06-19T03:30:37.561Z,5.47
2018-06-19T03:33:06.278Z,5.90
2018-06-19T03:35:34.927Z,6.40
2018-06-19T03:38:03.621Z,5.77
2018-06-19T03:40:32.298Z,7.00
2018-06-19T03:43:00.931Z,5.87
2018-06-19T03:45:29.604Z,6.70
2018-06-19T03:47:58.252Z,6.80
2018-06-19T03:50:26.905Z,6.00
2018-06-19T03:52:55.220Z,6.93
2018-06-19T03:55:23.853Z,7.30
2018-06-19T03:57:52.537Z,6.80
2018-06-19T04:00:21.234Z,6.87
2018-06-19T04:02:49.886Z,7.07
2018-06-19T04:05:18.613Z,7.33
2018-06-19T04:07:47.318Z,6.83
2018-06-19T04:10:15.991Z,7.57
2018-06-19T04:12:44.629Z,6.80
2018-06-19T04:15:13.295Z,7.93
2018-06-19T04:17:41.968Z,7.53
2018-06-19T04:20:10.656Z,7.70
2018-06-19T04:22:39.347Z,7.30
2018-06-19T04:25:08.057Z,7.27
2018-06-19T04:27:36.749Z,8.23
2018-06-19T04:30:10.054Z,8.20
2018-06-19T04:32:38.740Z,8.40
2018-06-19T04:35:07.378Z,7.90
2018-06-19T04:37:36.042Z,8.13
2018-06-19T04:40:04.730Z,8.80
2018-06-19T04:42:33.398Z,8.50
2018-06-19T04:45:02.097Z,8.93
2018-06-19T04:47:30.781Z,8.57
2018-06-19T04:49:59.403Z,9.13
2018-06-19T04:52:28.073Z,9.07
2018-06-19T04:54:56.763Z,9.83
2018-06-19T04:57:25.443Z,10.83
2018-06-19T04:59:54.123Z,10.73
2018-06-19T05:02:22.837Z,11.10
2018-06-19T05:04:51.533Z,11.37
2018-06-19T05:07:20.183Z,12.07
2018-06-19T05:09:48.888Z,12.10
2018-06-19T05:12:17.594Z,13.87
2018-06-19T05:14:46.256Z,12.50
2018-06-19T05:17:14.932Z,12.80
2018-06-19T05:19:43.578Z,13.83
2018-06-19T05:22:12.288Z,14.33
2018-06-19T05:24:41.262Z,14.83
2018-06-19T05:27:09.935Z,15.03
2018-06-19T05:29:38.796Z,14.27
2018-06-19T05:32:07.481Z,15.40
2018-06-19T05:34:36.155Z,14.80
2018-06-19T05:37:05.073Z,16.33
2018-06-19T05:39:33.782Z,15.93
2018-06-19T05:42:02.414Z,16.70
2018-06-19T05:44:31.067Z,16.50
2018-06-19T05:46:59.363Z,17.77
2018-06-19T05:49:28.038Z,18.03
2018-06-19T05:51:57.239Z,18.10
2018-06-19T05:54:25.881Z,18.37
2018-06-19T05:56:54.536Z,18.83
2018-06-19T05:59:23.296Z,18.53
2018-06-19T06:01:51.982Z,18.67
2018-06-19T06:04:20.650Z,19.20
2018-06-19T06:06:49.281Z,19.53
2018-06-19T06:09:17.906Z,20.67
2018-06-19T06:11:46.574Z,20.27
2018-06-19T06:14:15.220Z,20.00
2018-06-19T06:16:43.912Z,20.23
2018-06-19T06:19:12.541Z,20.27
2018-06-19T06:21:41.251Z,20.17
2018-06-19T06:24:09.891Z,20.27
2018-06-19T06:26:38.487Z,20.17
2018-06-19T06:29:07.354Z,21.23
2018-06-19T06:31:36.024Z,20.47
2018-06-19T06:34:04.670Z,21.20
2018-06-19T06:36:33.274Z,20.93
2018-06-19T06:39:01.938Z,22.13
2018-06-19T06:41:30.272Z,22.90
2018-06-19T06:43:58.965Z,22.60
2018-06-19T06:46:27.703Z,22.50
2018-06-19T06:48:56.421Z,22.77
2018-06-19T06:51:25.073Z,23.23
2018-06-19T06:53:53.701Z,22.87
2018-06-19T06:56:22.402Z,22.40
2018-06-19T06:58:51.324Z,23.73
2018-06-19T07:01:19.968Z,22.63
2018-06-19T07:03:48.623Z,23.73
2018-06-19T07:06:17.307Z,23.47
2018-06-19T07:08:46.279Z,24.90
2018-06-19T07:11:14.976Z,23.40
2018-06-19T07:13:43.654Z,24.47
2018-06-19T07:16:12.341Z,23.07
2018-06-19T07:18:41.044Z,24.17
2018-06-19T07:21:09.663Z,21.77
2018-06-19T07:23:38.734Z,23.47
2018-06-19T07:26:07.453Z,23.10
2018-06-19T07:28:36.089Z,22.80
2018-06-19T07:31:05.265Z,23.70
2018-06-19T07:33:33.968Z,23.37
2018-06-19T07:36:03.473Z,23.63
2018-06-19T07:38:32.280Z,23.53
2018-06-19T07:41:01.095Z,24.20
2018-06-19T07:43:30.030Z,24.43
2018-06-19T07:46:00.118Z,24.17
2018-06-19T07:48:29.049Z,24.97
2018-06-19T07:50:58.263Z,25.40
2018-06-19T07:53:27.069Z,24.37
2018-06-19T07:55:56.076Z,24.97
2018-06-19T07:58:25.130Z,25.13
2018-06-19T08:00:54.551Z,25.80
2018-06-19T08:03:23.958Z,24.87
2018-06-19T08:05:52.896Z,25.97
2018-06-19T08:08:21.714Z,24.50
2018-06-19T08:10:52.534Z,25.27
2018-06-19T08:13:21.428Z,25.20
2018-06-19T08:15:50.281Z,24.90
2018-06-19T08:18:19.192Z,24.53
2018-06-19T08:20:47.931Z,23.47
2018-06-19T08:23:17.015Z,22.20
2018-06-19T08:25:46.209Z,23.10
2018-06-19T08:28:17.361Z,20.80
2018-06-19T08:30:46.246Z,21.43
2018-06-19T08:33:16.173Z,20.80
2018-06-19T08:35:46.281Z,21.30
2018-06-19T08:38:15.130Z,20.70
2018-06-19T08:40:43.969Z,19.83
2018-06-19T08:43:12.881Z,20.53
2018-06-19T08:45:43.984Z,20.07
2018-06-19T08:48:13.190Z,19.40
2018-06-19T08:50:42.034Z,19.80
2018-06-19T08:53:11.694Z,19.83
2018-06-19T08:55:42.828Z,19.67
2018-06-19T08:58:11.852Z,19.77
2018-06-19T09:00:40.839Z,18.83
2018-06-19T09:03:09.653Z,19.57
2018-06-19T09:05:39.479Z,18.83
2018-06-19T09:08:08.449Z,20.10
2018-06-19T09:10:39.525Z,19.87
2018-06-19T09:13:10.167Z,19.30
2018-06-19T09:15:40.376Z,19.37
2018-06-19T09:18:09.510Z,19.77
2018-06-19T09:20:43.828Z,18.10
2018-06-19T09:23:12.910Z,18.77
2018-06-19T09:25:47.220Z,18.80
2018-06-19T09:28:16.670Z,18.30
2018-06-19T09:30:48.466Z,18.07
2018-06-19T09:33:19.584Z,17.90
2018-06-19T09:35:48.825Z,17.90
2018-06-19T09:38:18.748Z,17.70
2018-06-19T09:40:53.362Z,18.07
2018-06-19T09:43:22.568Z,17.03
2018-06-19T09:45:52.723Z,17.80
2018-06-19T09:48:24.009Z,16.63
2018-06-19T09:50:53.351Z,16.60
2018-06-19T09:53:22.807Z,16.20
2018-06-19T09:55:52.012Z,16.67
2018-06-19T09:58:24.488Z,15.30
2018-06-19T10:00:58.971Z,15.97
2018-06-19T10:03:27.821Z,15.57
2018-06-19T10:05:56.666Z,15.63
2018-06-19T10:08:25.747Z,15.50
2018-06-19T10:10:54.585Z,14.90
2018-06-19T10:13:23.418Z,14.50
2018-06-19T10:15:52.240Z,14.30
2018-06-19T10:18:22.056Z,14.30
2018-06-19T10:20:53.878Z,14.37
2018-06-19T10:23:22.824Z,14.03
2018-06-19T10:25:51.664Z,15.37
2018-06-19T10:28:21.123Z,14.30
2018-06-19T10:30:49.983Z,14.23
2018-06-19T10:33:19.723Z,13.73
2018-06-19T10:35:48.825Z,12.77
2018-06-19T10:38:17.717Z,13.03
2018-06-19T10:40:46.501Z,13.77
2018-06-19T10:43:15.269Z,13.23
2018-06-19T10:45:44.505Z,12.37
2018-06-19T10:48:13.323Z,12.40
2018-06-19T10:50:42.054Z,11.60
2018-06-19T10:53:10.928Z,12.07
2018-06-19T10:55:39.792Z,10.70
2018-06-19T10:58:08.576Z,11.70
2018-06-19T11:00:37.584Z,11.43
2018-06-19T11:03:06.375Z,11.17
2018-06-19T11:05:35.215Z,10.90
2018-06-19T11:08:04.015Z,10.97
2018-06-19T11:10:32.911Z,11.07
2018-06-19T11:13:01.769Z,10.40
2018-06-19T11:15:30.759Z,10.07
2018-06-19T11:17:59.576Z,10.27
2018-06-19T11:20:28.373Z,10.00
2018-06-19T11:22:57.761Z,9.40
2018-06-19T11:25:26.665Z,7.43
2018-06-19T11:27:56.151Z,8.30
2018-06-19T11:30:24.975Z,8.40
2018-06-19T11:32:53.793Z,9.30
2018-06-19T11:35:25.026Z,8.77
2018-06-19T11:37:53.761Z,9.10
2018-06-19T11:40:23.296Z,9.43
2018-06-19T11:42:52.250Z,8.97
2018-06-19T11:45:21.191Z,9.07
2018-06-19T11:47:50.346Z,8.73
2018-06-19T11:50:19.124Z,9.73
2018-06-19T11:52:47.908Z,10.03
2018-06-19T11:55:16.710Z,9.50
2018-06-19T11:57:45.524Z,9.17
2018-06-19T12:00:14.733Z,9.70
2018-06-19T12:02:43.523Z,10.73
2018-06-19T12:05:12.291Z,9.80
2018-06-19T12:07:42.943Z,10.20
2018-06-19T12:10:12.152Z,11.17
2018-06-19T12:12:41.450Z,10.13
2018-06-19T12:15:10.278Z,8.37
2018-06-19T12:17:39.445Z,8.60
2018-06-19T12:20:09.269Z,7.50
2018-06-19T12:22:38.421Z,7.83
2018-06-19T12:25:08.257Z,7.60
2018-06-19T12:27:39.400Z,7.83
2018-06-19T12:30:08.308Z,7.17
2018-06-19T12:32:37.168Z,6.80
2018-06-19T12:35:07.236Z,7.60
2018-06-19T12:37:36.038Z,8.40
2018-06-19T12:40:06.408Z,8.27
2018-06-19T12:42:35.201Z,8.10
2018-06-19T12:45:04.102Z,6.73
2018-06-19T12:47:32.947Z,7.37
2018-06-19T12:50:41.179Z,7.73
2018-06-19T12:53:21.625Z,7.07
2018-06-19T12:56:02.366Z,7.50
2018-06-19T12:58:31.259Z,6.93
2018-06-19T13:01:00.140Z,6.87
2018-06-19T13:03:39.998Z,6.20
2018-06-19T13:06:19.980Z,6.60
2018-06-19T13:08:48.875Z,5.93
2018-06-19T13:11:17.609Z,6.10
2018-06-19T13:13:57.596Z,6.23
2018-06-19T13:16:37.343Z,6.33
2018-06-19T13:19:17.431Z,6.40
2018-06-19T13:21:46.158Z,6.53
2018-06-19T13:24:14.916Z,6.73
2018-06-19T13:26:44.707Z,7.10
2018-06-19T13:29:53.846Z,7.00
2018-06-19T13:32:22.884Z,6.87
2018-06-19T13:34:51.770Z,6.70
2018-06-19T13:37:21.625Z,6.30
2018-06-19T13:41:09.327Z,6.30
2018-06-19T13:43:49.133Z,7.30
2018-06-19T13:46:17.868Z,6.57
2018-06-19T13:48:46.648Z,6.30
2018-06-19T13:51:15.994Z,6.60
2018-06-19T13:53:45.369Z,6.23
2018-06-19T13:57:27.890Z,6.50
2018-06-19T13:59:58.600Z,6.83
2018-06-19T14:02:30.391Z,6.33
2018-06-19T14:05:03.971Z,6.33
2018-06-19T14:07:38.386Z,5.90
2018-06-19T14:10:25.566Z,6.47
2018-06-19T14:13:04.148Z,5.90
2018-06-19T14:15:43.963Z,6.43
2018-06-19T14:18:15.513Z,7.17
2018-06-19T14:20:46.369Z,7.20
2018-06-19T14:23:15.403Z,7.50
2018-06-19T14:25:44.441Z,7.17
2018-06-19T14:28:13.444Z,6.97
2018-06-19T14:30:44.528Z,7.67
2018-06-19T14:33:13.567Z,7.23
2018-06-19T14:35:44.000Z,7.50
2018-06-19T14:38:14.774Z,7.23
2018-06-19T14:40:44.174Z,7.43
2018-06-19T14:43:14.450Z,7.20
2018-06-19T14:45:44.324Z,8.10
2018-06-19T14:48:21.622Z,9.10
2018-06-19T14:50:53.370Z,7.83
2018-06-19T14:53:26.045Z,7.00
2018-06-19T14:55:57.086Z,6.90
2018-06-19T14:58:27.076Z,6.83
2018-06-19T15:00:57.123Z,6.70
2018-06-19T15:06:01.740Z,7.17
2018-06-19T15:08:30.647Z,6.93
2018-06-19T15:10:59.773Z,6.67
2018-06-19T15:13:29.906Z,7.13
2018-06-19T15:15:59.545Z,7.13
2018-06-19T15:18:28.769Z,6.73
2018-06-19T15:20:58.457Z,6.97
2018-06-19T15:23:27.287Z,7.23
2018-06-19T15:25:56.245Z,7.37
2018-06-19T15:28:25.684Z,7.00
2018-06-19T15:30:54.484Z,7.63
2018-06-19T15:33:24.233Z,7.70
2018-06-19T15:35:52.992Z,7.50
2018-06-19T15:38:22.240Z,7.17
2018-06-19T15:40:51.026Z,7.20
2018-06-19T15:43:21.032Z,7.33
2018-06-19T15:45:49.870Z,7.60
2018-06-19T15:48:22.099Z,7.80
2018-06-19T15:50:51.071Z,7.07
2018-06-19T15:53:19.830Z,7.20
2018-06-19T15:55:48.615Z,8.27
2018-06-19T15:58:17.383Z,7.63
2018-06-19T16:00:46.489Z,6.97
2018-06-19T16:03:15.801Z,8.13
2018-06-19T16:05:44.994Z,8.00
2018-06-19T16:08:19.318Z,7.63
2018-06-19T16:10:49.804Z,7.90
2018-06-19T16:13:18.816Z,7.97
2018-06-19T16:15:47.499Z,8.63
2018-06-19T16:18:17.042Z,7.73
2018-06-19T16:20:45.827Z,8.37
2018-06-19T16:23:14.597Z,7.97
2018-06-19T16:25:43.473Z,8.10
2018-06-19T16:28:12.261Z,8.37
2018-06-19T16:30:41.429Z,8.40
2018-06-19T16:33:10.137Z,7.57
2018-06-19T16:35:38.861Z,7.43
2018-06-19T16:38:07.609Z,7.30
2018-06-19T16:40:36.478Z,7.70
2018-06-19T16:43:05.257Z,7.77
2018-06-19T16:45:34.045Z,7.67
2018-06-19T16:48:02.826Z,7.57
2018-06-19T16:50:31.581Z,7.43
2018-06-19T16:53:00.429Z,7.80
2018-06-19T16:55:29.228Z,7.50
2018-06-19T16:57:57.922Z,7.60
2018-06-19T17:00:26.738Z,7.37
2018-06-19T17:02:55.480Z,7.03
2018-06-19T17:05:24.278Z,7.67
2018-06-19T17:07:53.069Z,7.33
2018-06-19T17:10:22.493Z,6.73
2018-06-19T17:12:51.232Z,7.10
2018-06-19T17:15:23.985Z,7.57
2018-06-19T17:17:52.805Z,7.57
2018-06-19T17:20:22.466Z,8.30
2018-06-19T17:22:51.350Z,7.60
2018-06-19T17:25:21.457Z,7.30
2018-06-19T17:27:55.133Z,7.17
2018-06-19T17:30:24.072Z,7.73
2018-06-19T17:32:52.937Z,7.73
2018-06-19T17:35:22.044Z,7.73
2018-06-19T17:37:50.882Z,7.67
2018-06-19T17:40:19.674Z,7.57
2018-06-19T17:42:48.672Z,7.87
2018-06-19T17:45:17.419Z,7.50
2018-06-19T17:47:46.483Z,7.73
2018-06-19T17:50:15.170Z,7.37
2018-06-19T17:52:44.254Z,6.50
2018-06-19T17:55:13.030Z,7.43
2018-06-19T17:57:41.900Z,7.63
2018-06-19T18:00:10.855Z,7.87
2018-06-19T18:02:39.589Z,8.67
2018-06-19T18:05:11.032Z,7.27
2018-06-19T18:07:40.141Z,7.57
2018-06-19T18:10:08.911Z,7.73
2018-06-19T18:12:38.019Z,8.70
2018-06-19T18:15:06.951Z,8.30
2018-06-19T18:17:35.729Z,8.10
2018-06-19T18:20:04.496Z,8.40
2018-06-19T18:22:33.350Z,8.37
2018-06-19T18:25:02.176Z,8.37
2018-06-19T18:27:30.998Z,8.17
2018-06-19T18:30:00.411Z,7.97
2018-06-19T18:32:29.172Z,7.77
2018-06-19T18:34:58.127Z,7.87
2018-06-19T18:37:26.988Z,9.13
2018-06-19T18:39:55.812Z,9.10
2018-06-19T18:42:24.685Z,8.73
2018-06-19T18:44:53.515Z,9.13
2018-06-19T18:47:22.553Z,9.03
2018-06-19T18:49:51.425Z,10.00
2018-06-19T18:52:20.287Z,9.77
2018-06-19T18:54:49.161Z,11.30
2018-06-19T18:57:17.886Z,10.20
2018-06-19T18:59:46.759Z,9.97
2018-06-19T19:02:16.241Z,8.97
2018-06-19T19:04:45.423Z,9.97
2018-06-19T19:07:15.140Z,10.80
2018-06-19T19:09:48.258Z,10.83
2018-06-19T19:12:17.144Z,9.60
2018-06-19T19:14:51.141Z,10.07
2018-06-19T19:17:25.550Z,10.70
2018-06-19T19:19:54.420Z,10.87
2018-06-19T19:22:23.392Z,11.00
2018-06-19T19:24:52.239Z,11.10
2018-06-19T19:27:28.244Z,10.73
2018-06-19T19:29:57.108Z,10.20
2018-06-19T19:32:27.246Z,9.80
2018-06-19T19:34:56.065Z,9.87
2018-06-19T19:37:30.260Z,10.00
2018-06-19T19:40:00.186Z,10.27
2018-06-19T19:42:29.023Z,10.07
2018-06-19T19:44:57.895Z,10.20
2018-06-19T19:47:32.524Z,9.03
2018-06-19T19:50:01.774Z,10.37
2018-06-19T19:52:30.497Z,10.70
2018-06-19T19:55:01.076Z,9.53
2018-06-19T19:57:35.279Z,9.70
2018-06-19T20:00:05.752Z,9.63
2018-06-19T20:02:34.564Z,9.93
2018-06-19T20:05:04.396Z,9.90
2018-06-19T20:07:33.216Z,9.53
2018-06-19T20:10:02.123Z,10.13
2018-06-19T20:12:30.916Z,9.37
2018-06-19T20:14:59.903Z,7.50
2018-06-19T20:17:28.787Z,7.90
2018-06-19T20:19:57.515Z,7.77
2018-06-19T20:22:26.965Z,6.60
2018-06-19T20:24:56.401Z,7.87
2018-06-19T20:27:25.090Z,7.17
2018-06-19T20:29:53.930Z,7.80
2018-06-19T20:32:26.493Z,7.90
2018-06-19T20:34:57.101Z,9.10
2018-06-19T20:37:27.167Z,7.87
2018-06-19T20:39:59.410Z,8.10
2018-06-19T20:42:28.540Z,7.53
2018-06-19T20:44:59.231Z,8.67
2018-06-19T20:47:30.744Z,8.30
2018-06-19T20:50:02.074Z,7.97
2018-06-19T20:52:31.370Z,8.30
2018-06-19T20:55:02.952Z,13.77
2018-06-19T20:57:31.830Z,13.80
2018-06-19T21:00:01.104Z,14.20
2018-06-19T21:02:31.057Z,14.60
2018-06-19T21:05:01.639Z,14.70
2018-06-19T21:07:30.793Z,16.10
2018-06-19T21:10:00.866Z,15.77
2018-06-19T21:12:29.965Z,16.93
2018-06-19T21:15:00.244Z,16.97
2018-06-19T21:17:33.424Z,16.67
2018-06-19T21:20:04.488Z,17.27
2018-06-19T21:22:40.183Z,16.53
2018-06-19T21:25:12.595Z,17.50
2018-06-19T21:27:41.816Z,17.67
2018-06-19T21:30:13.105Z,18.27
2018-06-19T21:32:43.621Z,18.67
2018-06-19T21:35:14.009Z,17.30
2018-06-19T21:37:45.623Z,18.57
2018-06-19T21:40:17.564Z,17.43
2018-06-19T21:42:54.619Z,17.97
2018-06-19T21:45:26.555Z,18.67
2018-06-19T21:47:56.694Z,17.77
2018-06-19T21:50:26.841Z,19.67
2018-06-19T21:52:56.937Z,18.17
2018-06-19T21:55:26.855Z,18.03
2018-06-19T21:58:00.867Z,17.03
2018-06-19T22:00:32.141Z,16.53
2018-06-19T22:03:03.920Z,15.17
2018-06-19T22:05:33.480Z,13.90
2018-06-19T22:08:02.888Z,14.13
2018-06-19T22:10:33.191Z,14.07
2018-06-19T22:13:03.209Z,14.53
2018-06-19T22:15:32.704Z,15.00
2018-06-19T22:18:05.824Z,15.20
2018-06-19T22:20:35.626Z,15.80
2018-06-19T22:23:10.870Z,16.17
2018-06-19T22:25:40.814Z,16.97
2018-06-19T22:28:11.219Z,16.70
2018-06-19T22:30:42.916Z,17.13
2018-06-19T22:33:12.204Z,17.10
2018-06-19T22:35:41.402Z,16.80
2018-06-19T22:38:11.708Z,17.73
2018-06-19T22:40:42.934Z,17.27
2018-06-19T22:43:13.103Z,18.03
2018-06-19T22:45:44.144Z,17.63
2018-06-19T22:48:15.741Z,18.17
2018-06-19T22:50:47.798Z,17.87
2018-06-19T22:53:17.593Z,18.47
2018-06-19T22:55:46.935Z,17.77
2018-06-19T22:58:17.744Z,17.57
2018-06-19T23:00:50.794Z,17.73
2018-06-19T23:03:20.556Z,16.83
2018-06-19T23:05:50.344Z,17.43
2018-06-19T23:08:19.910Z,17.27
2018-06-19T23:10:49.648Z,17.13
2018-06-19T23:13:19.006Z,18.03
2018-06-19T23:15:49.856Z,19.03
2018-06-19T23:18:20.031Z,19.53
2018-06-19T23:20:49.593Z,18.80
2018-06-19T23:23:19.009Z,18.53
2018-06-19T23:25:49.377Z,19.80
2018-06-19T23:28:20.147Z,18.97
2018-06-19T23:30:50.111Z,19.43
2018-06-19T23:33:19.602Z,20.10
2018-06-19T23:35:57.220Z,20.63
2018-06-19T23:38:28.913Z,22.67
2018-06-19T23:41:02.996Z,21.07
2018-06-19T23:43:36.567Z,22.20
2018-06-19T23:46:07.607Z,22.97
2018-06-19T23:48:37.360Z,22.63
2018-06-19T23:51:08.934Z,21.80
2018-06-19T23:53:43.476Z,22.40
2018-06-19T23:56:14.796Z,23.47
2018-06-19T23:58:50.006Z,23.87
